sensor_id;sensor_type;location;lat;lon;timestamp;pressure;altitude;pressure_sealevel;temperature;humidity
41866;BME280;27539;43.222;27.558;2023-01-08T00:02:16;125848.00;;;152.56;100.00
41866;BME280;27539;43.222;27.558;2023-01-08T00:04:42;125848.00;;;152.56;100.00
41866;BME280;27539;43.222;27.558;2023-01-08T00:07:08;125848.00;;;152.56;100.00
41866;BME280;27539;43.222;27.558;2023-01-08T00:09:33;125848.00;;;152.56;100.00
41866;BME280;27539;43.222;27.558;2023-01-08T00:11:59;125848.00;;;152.56;100.00
41866;BME280;27539;43.222;27.558;2023-01-08T00:28:15;101309.31;;;7.85;100.00
41866;BME280;27539;43.222;27.558;2023-01-08T00:30:41;101309.31;;;7.85;100.00
41866;BME280;27539;43.222;27.558;2023-01-08T00:33:07;101151.97;;;6.87;100.00
41866;BME280;27539;43.222;27.558;2023-01-08T00:35:33;101151.97;;;6.87;100.00
41866;BME280;27539;43.222;27.558;2023-01-08T00:37:58;101151.97;;;6.87;100.00
41866;BME280;27539;43.222;27.558;2023-01-08T00:40:24;63504.72;;;-145.93;100.00
41866;BME280;27539;43.222;27.558;2023-01-08T00:42:50;63504.72;;;-145.93;100.00
41866;BME280;27539;43.222;27.558;2023-01-08T00:45:15;63504.72;;;-145.93;100.00
41866;BME280;27539;43.222;27.558;2023-01-08T00:47:41;63504.72;;;-145.93;100.00
41866;BME280;27539;43.222;27.558;2023-01-08T00:50:07;63504.72;;;-145.93;100.00
41866;BME280;27539;43.222;27.558;2023-01-08T00:52:33;63504.72;;;-145.93;100.00
41866;BME280;27539;43.222;27.558;2023-01-08T00:54:59;63504.72;;;-145.93;100.00
41866;BME280;27539;43.222;27.558;2023-01-08T00:57:24;63504.72;;;-145.93;100.00
41866;BME280;27539;43.222;27.558;2023-01-08T00:59:50;63504.72;;;-145.93;100.00
41866;BME280;27539;43.222;27.558;2023-01-08T01:02:16;63504.72;;;-145.93;100.00
41866;BME280;27539;43.222;27.558;2023-01-08T01:04:41;63504.72;;;-145.93;100.00
41866;BME280;27539;43.222;27.558;2023-01-08T01:07:07;63504.72;;;-145.93;100.00
41866;BME280;27539;43.222;27.558;2023-01-08T01:09:33;63504.72;;;-145.93;100.00
41866;BME280;27539;43.222;27.558;2023-01-08T01:11:58;63504.72;;;-145.93;100.00
41866;BME280;27539;43.222;27.558;2023-01-08T01:14:24;63504.72;;;-145.93;100.00
41866;BME280;27539;43.222;27.558;2023-01-08T02:12:32;63504.72;;;-145.93;100.00
41866;BME280;27539;43.222;27.558;2023-01-08T03:24:50;101186.84;;;5.28;100.00
41866;BME280;27539;43.222;27.558;2023-01-08T03:31:51;101151.34;;;5.46;100.00
41866;BME280;27539;43.222;27.558;2023-01-08T03:34:19;101136.03;;;5.44;100.00
41866;BME280;27539;43.222;27.558;2023-01-08T03:36:48;101114.19;;;5.42;100.00
41866;BME280;27539;43.222;27.558;2023-01-08T03:39:20;101167.16;;;5.59;100.00
41866;BME280;27539;43.222;27.558;2023-01-08T03:41:48;101111.84;;;5.17;100.00
41866;BME280;27539;43.222;27.558;2023-01-08T03:44:15;101282.56;;;6.13;100.00
41866;BME280;27539;43.222;27.558;2023-01-08T03:46:47;101123.13;;;5.01;100.00
41866;BME280;27539;43.222;27.558;2023-01-08T03:49:16;101118.53;;;5.08;100.00
41866;BME280;27539;43.222;27.558;2023-01-08T03:51:45;101121.84;;;4.97;100.00
41866;BME280;27539;43.222;27.558;2023-01-08T03:54:15;101141.44;;;5.09;100.00
41866;BME280;27539;43.222;27.558;2023-01-08T03:56:41;101115.53;;;4.82;100.00
41866;BME280;27539;43.222;27.558;2023-01-08T03:59:07;101308.66;;;5.89;100.00
41866;BME280;27539;43.222;27.558;2023-01-08T04:01:33;101185.41;;;5.10;100.00
41866;BME280;27539;43.222;27.558;2023-01-08T04:03:59;101156.34;;;4.93;100.00
41866;BME280;27539;43.222;27.558;2023-01-08T09:03:01;63504.72;;;-145.93;100.00
41866;BME280;27539;43.222;27.558;2023-01-08T09:05:27;63504.72;;;-145.93;100.00
41866;BME280;27539;43.222;27.558;2023-01-08T09:07:53;101208.50;;;7.46;100.00
41866;BME280;27539;43.222;27.558;2023-01-08T09:10:19;101281.59;;;7.78;100.00
41866;BME280;27539;43.222;27.558;2023-01-08T09:12:45;101328.97;;;8.30;100.00
41866;BME280;27539;43.222;27.558;2023-01-08T09:15:11;101328.97;;;8.30;100.00
41866;BME280;27539;43.222;27.558;2023-01-08T09:17:37;101323.00;;;8.33;100.00
41866;BME280;27539;43.222;27.558;2023-01-08T09:20:04;101176.75;;;7.62;100.00
41866;BME280;27539;43.222;27.558;2023-01-08T09:22:30;101194.47;;;7.88;100.00
41866;BME280;27539;43.222;27.558;2023-01-08T09:24:56;101182.50;;;7.87;100.00
41866;BME280;27539;43.222;27.558;2023-01-08T09:27:21;101179.91;;;8.26;100.00
41866;BME280;27539;43.222;27.558;2023-01-08T09:29:47;101210.78;;;8.49;100.00
41866;BME280;27539;43.222;27.558;2023-01-08T09:32:13;101194.16;;;8.49;100.00
41866;BME280;27539;43.222;27.558;2023-01-08T09:34:38;101150.44;;;8.31;100.00
41866;BME280;27539;43.222;27.558;2023-01-08T09:37:04;101252.84;;;8.98;100.00
41866;BME280;27539;43.222;27.558;2023-01-08T09:39:31;101163.19;;;8.52;100.00
41866;BME280;27539;43.222;27.558;2023-01-08T09:41:59;101137.44;;;8.32;100.00
41866;BME280;27539;43.222;27.558;2023-01-08T09:44:29;101137.44;;;8.32;100.00
41866;BME280;27539;43.222;27.558;2023-01-08T09:46:55;101162.38;;;8.32;100.00
41866;BME280;27539;43.222;27.558;2023-01-08T09:49:26;101179.44;;;8.42;100.00
41866;BME280;27539;43.222;27.558;2023-01-08T09:51:55;101185.44;;;8.91;100.00
41866;BME280;27539;43.222;27.558;2023-01-08T09:54:25;101124.78;;;8.94;100.00
41866;BME280;27539;43.222;27.558;2023-01-08T09:56:51;101228.31;;;9.97;100.00
41866;BME280;27539;43.222;27.558;2023-01-08T19:00:16;103741.22;;;6.66;100.00
41866;BME280;27539;43.222;27.558;2023-01-08T19:02:42;101181.66;;;6.24;100.00
41866;BME280;27539;43.222;27.558;2023-01-08T19:05:08;63504.72;;;-145.93;100.00
41866;BME280;27539;43.222;27.558;2023-01-08T19:07:34;63504.72;;;-145.93;100.00
41866;BME280;27539;43.222;27.558;2023-01-08T19:10:00;63504.72;;;-145.93;100.00
41866;BME280;27539;43.222;27.558;2023-01-08T19:12:26;63504.72;;;-145.93;100.00
41866;BME280;27539;43.222;27.558;2023-01-08T19:14:53;63504.72;;;-145.93;100.00
41866;BME280;27539;43.222;27.558;2023-01-08T19:17:19;63504.72;;;-145.93;100.00
41866;BME280;27539;43.222;27.558;2023-01-08T19:19:44;63504.72;;;-145.93;100.00
41866;BME280;27539;43.222;27.558;2023-01-08T19:24:59;101070.28;;;5.54;100.00
41866;BME280;27539;43.222;27.558;2023-01-08T19:27:24;101070.28;;;5.54;100.00
41866;BME280;27539;43.222;27.558;2023-01-08T19:29:50;101230.75;;;6.57;100.00
41866;BME280;27539;43.222;27.558;2023-01-08T19:32:16;101109.56;;;5.84;100.00
41866;BME280;27539;43.222;27.558;2023-01-08T19:34:41;101202.97;;;6.30;100.00
41866;BME280;27539;43.222;27.558;2023-01-08T19:37:07;101084.56;;;5.57;100.00
41866;BME280;27539;43.222;27.558;2023-01-08T19:39:33;101138.25;;;5.83;100.00
41866;BME280;27539;43.222;27.558;2023-01-08T19:41:59;128829.53;;;5.78;100.00
41866;BME280;27539;43.222;27.558;2023-01-08T19:44:43;101140.78;;;5.78;100.00
41866;BME280;27539;43.222;27.558;2023-01-08T19:47:09;63504.72;;;-145.93;100.00
41866;BME280;27539;43.222;27.558;2023-01-08T19:49:36;63504.72;;;-145.93;100.00
41866;BME280;27539;43.222;27.558;2023-01-08T19:52:03;63504.72;;;-145.93;100.00
41866;BME280;27539;43.222;27.558;2023-01-08T19:54:29;63504.72;;;-145.93;100.00
41866;BME280;27539;43.222;27.558;2023-01-08T19:56:54;63504.72;;;-145.93;100.00
41866;BME280;27539;43.222;27.558;2023-01-08T20:14:02;101247.66;;;6.05;nan
41866;BME280;27539;43.222;27.558;2023-01-08T20:16:30;63504.72;;;-145.93;100.00
41866;BME280;27539;43.222;27.558;2023-01-08T20:18:57;63504.72;;;-145.93;100.00
41866;BME280;27539;43.222;27.558;2023-01-08T20:26:33;101073.56;;;4.86;100.00
41866;BME280;27539;43.222;27.558;2023-01-08T21:12:40;69607.50;;;-184.79;0.00
41866;BME280;27539;43.222;27.558;2023-01-08T21:15:07;59047.06;;;74.19;0.00
41866;BME280;27539;43.222;27.558;2023-01-08T21:17:33;69607.50;;;-184.79;0.00
41866;BME280;27539;43.222;27.558;2023-01-08T21:19:59;59047.06;;;74.19;0.00
41866;BME280;27539;43.222;27.558;2023-01-08T21:23:11;101267.19;;;5.82;100.00
41866;BME280;27539;43.222;27.558;2023-01-08T21:25:37;63504.72;;;-145.93;100.00
41866;BME280;27539;43.222;27.558;2023-01-08T21:28:03;63504.72;;;-145.93;100.00
41866;BME280;27539;43.222;27.558;2023-01-08T21:30:28;63504.72;;;-145.93;100.00
41866;BME280;27539;43.222;27.558;2023-01-08T21:38:45;78106.47;;;-145.93;100.00
41866;BME280;27539;43.222;27.558;2023-01-08T21:41:15;101269.25;;;5.95;100.00
41866;BME280;27539;43.222;27.558;2023-01-08T21:44:03;63504.72;;;-145.93;100.00
41866;BME280;27539;43.222;27.558;2023-01-08T21:46:48;101205.03;;;5.65;100.00
41866;BME280;27539;43.222;27.558;2023-01-08T21:49:14;101205.03;;;5.65;100.00
